Flinterduin — PEBT — position and weather

sailwx.info

Track history (hours):
 
Tides and Currents Weather Stations Pressure Air Temp Water Temp Dewpoint Dewpoint Depression Visibility Wind Speed Wind Dir Waves Ship Positions

Flinterduin

Last reported at 2014-Oct-01 15:28 UTC. Time now 2014-Oct-01 16:28 UTC.
Position N 40°38' E 028°41'.

Length 112 m; beam 15 m.

Type: Cargo ship. MMSI: 246484000.

Date/timePositionNaut miles runAvg speedWind from/ knotsBaromVisibWave heightAir tempDewpointWater temp
2014-Oct-01 15:28N 40°38' E 028°41'1 1.0
2014-Oct-01 14:33N 40°39' E 028°42'1 0.6
2014-Oct-01 13:29N 40°39' E 028°43'1 0.5
2014-Oct-01 11:31N 40°40' E 028°44'1 0.6
2014-Oct-01 10:33N 40°40' E 028°44'1 0.6
2014-Oct-01 09:33N 40°41' E 028°45'1 0.8
2014-Oct-01 08:33N 40°41' E 028°45'1 0.8
2014-Oct-01 07:33N 40°41' E 028°46'5 4.6
2014-Oct-01 06:33N 40°37' E 028°46'18 9.1
2014-Oct-01 04:33N 40°25' E 029°05'0 0.0
2014-Sep-29 21:11N 40°25' E 029°05'0 0.0
2014-Sep-29 20:05N 40°25' E 029°05'0 0.0
2014-Sep-29 19:10N 40°25' E 029°05'1 0.1
2014-Sep-29 03:03N 40°26' E 029°05'1710.5
2014-Sep-29 01:26N 40°27' E 028°43'248 6.7
2014-Sep-27 12:33N 37°50' E 024°34'1110.6
2014-Sep-27 11:29N 37°40' E 024°29'1110.5
2014-Sep-27 10:27N 37°30' E 024°23'  
2014-Sep-25 05:29N 39°20' E 013°49'40311.5
2014-Sep-23 18:23N 42°27' E 005°56'39 9.9
2014-Sep-23 14:27N 42°49' E 005°12'9 9.3
2014-Sep-23 13:32N 42°57' E 005°08'9 9.6
2014-Sep-23 12:33N 43°06' E 005°04'1010.2
2014-Sep-23 11:33N 43°16' E 004°60'1010.4
2014-Sep-23 10:34N 43°25' E 004°53'1 0.8
2014-Sep-23 09:31N 43°26' E 004°53'0 0.0
2014-Sep-23 08:31N 43°26' E 004°53'0 0.0
2014-Sep-23 07:31N 43°26' E 004°53'0 0.0
2014-Sep-23 06:31N 43°26' E 004°53'0 0.0
2014-Sep-23 05:31N 43°26' E 004°53'0 0.0
2014-Sep-23 04:31N 43°26' E 004°53'0 0.0
2014-Sep-23 03:31N 43°26' E 004°53'0 0.0
2014-Sep-23 02:31N 43°26' E 004°53'0 0.0
2014-Sep-23 01:31N 43°26' E 004°53'0 0.0
2014-Sep-23 00:31N 43°26' E 004°53'0 0.0
2014-Sep-22 23:31N 43°26' E 004°53'0 0.0
2014-Sep-22 22:31N 43°26' E 004°53'0 0.0
2014-Sep-22 21:31N 43°26' E 004°53'0 0.0
2014-Sep-22 20:31N 43°26' E 004°53'0 0.0
2014-Sep-22 19:31N 43°26' E 004°53'0 0.0
2014-Sep-22 18:31N 43°26' E 004°53'0 0.0
2014-Sep-22 17:31N 43°26' E 004°53'0 0.0
2014-Sep-22 16:31N 43°26' E 004°53'0 0.0
2014-Sep-22 15:31N 43°26' E 004°53'0 0.0
2014-Sep-22 14:31N 43°26' E 004°53'0 0.0
2014-Sep-22 13:31N 43°26' E 004°53'0 0.0
2014-Sep-22 12:31N 43°26' E 004°53'0 0.0
2014-Sep-22 11:31N 43°26' E 004°53'0 0.0
2014-Sep-22 10:31N 43°26' E 004°53'0 0.0
2014-Sep-22 09:31N 43°26' E 004°53'0 0.0
2014-Sep-22 08:31N 43°26' E 004°53'0 0.0
2014-Sep-22 07:33N 43°26' E 004°53'2 2.2
2014-Sep-22 06:31N 43°25' E 004°56'0 0.0
2014-Sep-22 05:31N 43°25' E 004°56'0 0.0
2014-Sep-22 04:31N 43°25' E 004°56'0 0.0
2014-Sep-22 03:31N 43°25' E 004°56'0 0.0
2014-Sep-22 02:31N 43°25' E 004°56'0 0.0
2014-Sep-22 01:31N 43°25' E 004°56'0 0.0
2014-Sep-22 00:31N 43°25' E 004°56'0 0.0
2014-Sep-21 23:31N 43°25' E 004°56'0 0.0
2014-Sep-21 22:31N 43°25' E 004°56'0 0.0
2014-Sep-21 21:31N 43°25' E 004°56'0 0.0
2014-Sep-21 20:31N 43°25' E 004°56'0 0.0
2014-Sep-21 19:34N 43°25' E 004°56'0 0.0
2014-Sep-21 18:33N 43°25' E 004°56'0 0.0
2014-Sep-21 17:33N 43°25' E 004°56'0 0.0
2014-Sep-21 16:33N 43°25' E 004°56'0 0.0
2014-Sep-21 15:30N 43°25' E 004°56'  
Track history (hours):
 
Tides and Currents Weather Stations Pressure Air Temp Water Temp Dewpoint Dewpoint Depression Visibility Wind Speed Wind Dir Waves Ship Positions

Flinterduin

Last reported at 2014-Oct-01 15:28 UTC. Time now 2014-Oct-01 16:28 UTC.
Position N 40°38' E 028°41'.

Length 112 m; beam 15 m.

Type: Cargo ship. MMSI: 246484000.

Date/timePositionNaut miles runAvg speedWind from/ knotsBaromVisibWave heightAir tempDewpointWater temp
2014-Oct-01 15:28N 40°38' E 028°41'1 1.0
2014-Oct-01 14:33N 40°39' E 028°42'1 0.6
2014-Oct-01 13:29N 40°39' E 028°43'1 0.5
2014-Oct-01 11:31N 40°40' E 028°44'1 0.6
2014-Oct-01 10:33N 40°40' E 028°44'1 0.6
2014-Oct-01 09:33N 40°41' E 028°45'1 0.8
2014-Oct-01 08:33N 40°41' E 028°45'1 0.8
2014-Oct-01 07:33N 40°41' E 028°46'5 4.6
2014-Oct-01 06:33N 40°37' E 028°46'18 9.1
2014-Oct-01 04:33N 40°25' E 029°05'0 0.0
2014-Sep-29 21:11N 40°25' E 029°05'0 0.0
2014-Sep-29 20:05N 40°25' E 029°05'0 0.0
2014-Sep-29 19:10N 40°25' E 029°05'1 0.1
2014-Sep-29 03:03N 40°26' E 029°05'1710.5
2014-Sep-29 01:26N 40°27' E 028°43'248 6.7
2014-Sep-27 12:33N 37°50' E 024°34'1110.6
2014-Sep-27 11:29N 37°40' E 024°29'1110.5
2014-Sep-27 10:27N 37°30' E 024°23'  
2014-Sep-25 05:29N 39°20' E 013°49'40311.5
2014-Sep-23 18:23N 42°27' E 005°56'39 9.9
2014-Sep-23 14:27N 42°49' E 005°12'9 9.3
2014-Sep-23 13:32N 42°57' E 005°08'9 9.6
2014-Sep-23 12:33N 43°06' E 005°04'1010.2
2014-Sep-23 11:33N 43°16' E 004°60'1010.4
2014-Sep-23 10:34N 43°25' E 004°53'1 0.8
2014-Sep-23 09:31N 43°26' E 004°53'0 0.0
2014-Sep-23 08:31N 43°26' E 004°53'0 0.0
2014-Sep-23 07:31N 43°26' E 004°53'0 0.0
2014-Sep-23 06:31N 43°26' E 004°53'0 0.0
2014-Sep-23 05:31N 43°26' E 004°53'0 0.0
2014-Sep-23 04:31N 43°26' E 004°53'0 0.0
2014-Sep-23 03:31N 43°26' E 004°53'0 0.0
2014-Sep-23 02:31N 43°26' E 004°53'0 0.0
2014-Sep-23 01:31N 43°26' E 004°53'0 0.0
2014-Sep-23 00:31N 43°26' E 004°53'0 0.0
2014-Sep-22 23:31N 43°26' E 004°53'0 0.0
2014-Sep-22 22:31N 43°26' E 004°53'0 0.0
2014-Sep-22 21:31N 43°26' E 004°53'0 0.0
2014-Sep-22 20:31N 43°26' E 004°53'0 0.0
2014-Sep-22 19:31N 43°26' E 004°53'0 0.0
2014-Sep-22 18:31N 43°26' E 004°53'0 0.0
2014-Sep-22 17:31N 43°26' E 004°53'0 0.0
2014-Sep-22 16:31N 43°26' E 004°53'0 0.0
2014-Sep-22 15:31N 43°26' E 004°53'0 0.0
2014-Sep-22 14:31N 43°26' E 004°53'0 0.0
2014-Sep-22 13:31N 43°26' E 004°53'0 0.0
2014-Sep-22 12:31N 43°26' E 004°53'0 0.0
2014-Sep-22 11:31N 43°26' E 004°53'0 0.0
2014-Sep-22 10:31N 43°26' E 004°53'0 0.0
2014-Sep-22 09:31N 43°26' E 004°53'0 0.0
2014-Sep-22 08:31N 43°26' E 004°53'0 0.0
2014-Sep-22 07:33N 43°26' E 004°53'2 2.2
2014-Sep-22 06:31N 43°25' E 004°56'0 0.0
2014-Sep-22 05:31N 43°25' E 004°56'0 0.0
2014-Sep-22 04:31N 43°25' E 004°56'0 0.0
2014-Sep-22 03:31N 43°25' E 004°56'0 0.0
2014-Sep-22 02:31N 43°25' E 004°56'0 0.0
2014-Sep-22 01:31N 43°25' E 004°56'0 0.0
2014-Sep-22 00:31N 43°25' E 004°56'0 0.0
2014-Sep-21 23:31N 43°25' E 004°56'0 0.0
2014-Sep-21 22:31N 43°25' E 004°56'0 0.0
2014-Sep-21 21:31N 43°25' E 004°56'0 0.0
2014-Sep-21 20:31N 43°25' E 004°56'0 0.0
2014-Sep-21 19:34N 43°25' E 004°56'0 0.0
2014-Sep-21 18:33N 43°25' E 004°56'0 0.0
2014-Sep-21 17:33N 43°25' E 004°56'0 0.0
2014-Sep-21 16:33N 43°25' E 004°56'0 0.0
2014-Sep-21 15:30N 43°25' E 004°56'  

Dump ship's entire track history